createdAt,value
2023-01-13T00:01:14.261Z,1.76
2023-01-13T00:03:41.250Z,1.72
2023-01-13T00:06:08.348Z,1.54
2023-01-13T00:08:35.784Z,1.53
2023-01-13T00:11:02.486Z,1.46
2023-01-13T00:13:29.391Z,1.40
2023-01-13T00:16:00.238Z,1.38
2023-01-13T00:18:27.186Z,1.36
2023-01-13T00:21:21.054Z,1.32
2023-01-13T00:23:48.186Z,1.29
2023-01-13T00:26:23.304Z,1.24
2023-01-13T00:28:50.122Z,1.22
2023-01-13T00:31:19.241Z,1.17
2023-01-13T00:33:48.256Z,1.14
2023-01-13T00:36:15.791Z,1.12
2023-01-13T00:38:45.715Z,1.12
2023-01-13T00:41:14.927Z,1.16
2023-01-13T00:43:41.947Z,1.21
2023-01-13T00:46:11.128Z,1.25
2023-01-13T00:48:38.010Z,1.28
2023-01-13T00:51:18.907Z,1.35
2023-01-13T00:53:50.185Z,1.43
2023-01-13T00:56:38.084Z,1.47
2023-01-13T00:59:06.529Z,1.52
2023-01-13T01:01:33.353Z,1.51
2023-01-13T01:04:00.243Z,1.54
2023-01-13T01:06:27.706Z,1.54
2023-01-13T01:08:55.523Z,1.53
2023-01-13T01:11:29.387Z,1.58
2023-01-13T01:13:57.829Z,1.58
2023-01-13T01:16:26.612Z,1.58
2023-01-13T01:18:54.560Z,1.56
2023-01-13T01:21:22.659Z,1.57
2023-01-13T01:23:49.496Z,1.54
2023-01-13T01:26:22.002Z,1.50
2023-01-13T01:28:48.937Z,1.44
2023-01-13T01:31:27.631Z,1.43
2023-01-13T01:33:55.098Z,1.50
2023-01-13T01:36:23.244Z,1.54
2023-01-13T01:38:50.415Z,1.54
2023-01-13T01:41:25.332Z,1.58
2023-01-13T01:43:59.944Z,1.62
2023-01-13T01:46:40.032Z,1.65
2023-01-13T01:49:30.626Z,1.66
2023-01-13T01:52:19.765Z,1.73
2023-01-13T01:55:14.956Z,1.76
2023-01-13T01:57:47.036Z,1.78
2023-01-13T02:00:14.261Z,1.82
2023-01-13T02:02:44.068Z,1.86
2023-01-13T02:05:11.239Z,1.96
2023-01-13T02:07:39.348Z,2.00
2023-01-13T02:10:09.066Z,2.03
2023-01-13T02:12:36.683Z,2.03
2023-01-13T02:15:16.431Z,2.03
2023-01-13T02:17:54.483Z,2.05
2023-01-13T02:21:12.344Z,2.07
2023-01-13T02:23:57.281Z,2.06
2023-01-13T02:26:48.713Z,2.06
2023-01-13T02:29:55.981Z,2.11
2023-01-13T02:32:49.919Z,2.16
2023-01-13T02:35:23.211Z,2.15
2023-01-13T02:37:50.645Z,2.17
2023-01-13T02:40:23.201Z,2.20
2023-01-13T02:43:37.415Z,2.20
2023-01-13T02:46:18.044Z,2.21
2023-01-13T02:48:46.066Z,2.21
2023-01-13T02:51:15.777Z,2.22
2023-01-13T02:54:21.903Z,2.21
2023-01-13T02:56:51.019Z,2.21
2023-01-13T02:59:19.499Z,2.18
2023-01-13T03:01:47.097Z,2.21
2023-01-13T03:04:15.056Z,2.20
2023-01-13T03:07:00.232Z,2.17
2023-01-13T03:09:39.814Z,2.14
2023-01-13T03:12:31.853Z,2.09
2023-01-13T03:15:25.107Z,2.12
2023-01-13T03:18:24.212Z,2.14
2023-01-13T03:21:21.274Z,2.17
2023-01-13T03:23:57.516Z,2.20
2023-01-13T03:26:42.462Z,2.26
2023-01-13T03:29:49.428Z,2.35
2023-01-13T03:32:32.709Z,2.37
2023-01-13T03:35:02.379Z,2.34
2023-01-13T03:37:33.564Z,2.42
2023-01-13T03:40:16.234Z,2.47
2023-01-13T03:43:05.063Z,2.45
2023-01-13T03:45:33.391Z,2.54
2023-01-13T03:48:03.573Z,2.54
2023-01-13T03:50:35.013Z,2.58
2023-01-13T03:53:06.671Z,2.61
2023-01-13T03:55:39.713Z,2.64
2023-01-13T03:58:17.767Z,2.64
2023-01-13T04:00:50.707Z,2.73
2023-01-13T04:03:24.775Z,2.78
2023-01-13T04:05:54.773Z,2.80
2023-01-13T04:08:24.543Z,2.81
2023-01-13T04:11:18.484Z,2.84
2023-01-13T04:13:46.934Z,2.82
2023-01-13T04:16:13.952Z,2.79
2023-01-13T04:18:40.822Z,2.83
2023-01-13T04:21:08.082Z,2.89
2023-01-13T04:23:34.846Z,2.92
2023-01-13T04:26:01.578Z,2.93
2023-01-13T04:28:28.335Z,2.94
2023-01-13T04:30:55.057Z,2.95
2023-01-13T04:33:21.806Z,2.96
2023-01-13T04:35:48.844Z,2.96
2023-01-13T04:38:17.752Z,3.02
2023-01-13T04:40:44.751Z,3.03
2023-01-13T04:43:11.891Z,3.00
2023-01-13T04:45:39.192Z,3.00
2023-01-13T04:48:06.241Z,2.98
2023-01-13T04:50:33.133Z,2.98
2023-01-13T04:53:01.630Z,2.99
2023-01-13T04:55:28.561Z,2.88
2023-01-13T04:57:55.450Z,2.95
2023-01-13T05:00:23.669Z,2.96
2023-01-13T05:02:51.443Z,2.98
2023-01-13T05:05:18.438Z,2.99
2023-01-13T05:07:45.253Z,2.97
2023-01-13T05:10:12.436Z,3.01
2023-01-13T05:12:59.432Z,2.99
2023-01-13T05:15:44.498Z,3.00
2023-01-13T05:18:11.480Z,2.93
2023-01-13T05:20:38.383Z,2.90
2023-01-13T05:23:23.567Z,2.95
2023-01-13T05:25:50.405Z,3.01
2023-01-13T05:28:17.193Z,3.04
2023-01-13T05:30:46.162Z,3.01
2023-01-13T05:33:16.319Z,2.99
2023-01-13T05:35:44.653Z,2.98
2023-01-13T05:38:12.584Z,3.03
2023-01-13T05:40:59.613Z,3.00
2023-01-13T05:43:27.436Z,2.94
2023-01-13T05:46:00.287Z,2.93
2023-01-13T05:48:31.432Z,2.94
2023-01-13T05:50:58.368Z,2.93
2023-01-13T05:53:25.370Z,2.89
2023-01-13T05:55:53.063Z,2.92
2023-01-13T05:58:21.491Z,2.87
2023-01-13T06:00:48.299Z,2.82
2023-01-13T06:03:16.186Z,2.84
2023-01-13T06:05:43.536Z,2.91
2023-01-13T06:08:10.371Z,2.96
2023-01-13T06:10:37.206Z,3.00
2023-01-13T06:13:04.424Z,3.02
2023-01-13T06:15:31.694Z,3.03
2023-01-13T06:17:58.491Z,3.00
2023-01-13T06:20:25.366Z,2.95
2023-01-13T06:22:53.499Z,2.93
2023-01-13T06:25:28.813Z,2.98
2023-01-13T06:27:56.729Z,3.00
2023-01-13T06:30:28.179Z,3.01
2023-01-13T06:32:58.490Z,3.05
2023-01-13T06:35:33.217Z,3.01
2023-01-13T06:38:01.960Z,3.11
2023-01-13T06:40:28.936Z,3.28
2023-01-13T06:43:16.333Z,3.42
2023-01-13T06:45:47.042Z,3.49
2023-01-13T06:48:14.412Z,3.55
2023-01-13T06:50:42.307Z,3.52
2023-01-13T06:53:12.054Z,3.60
2023-01-13T06:55:40.614Z,3.61
2023-01-13T06:58:12.964Z,3.78
2023-01-13T07:00:58.134Z,3.74
2023-01-13T07:03:27.251Z,3.85
2023-01-13T07:05:58.032Z,3.85
2023-01-13T07:08:31.738Z,3.82
2023-01-13T07:11:04.768Z,3.74
2023-01-13T07:13:55.091Z,3.77
2023-01-13T07:16:26.306Z,3.74
2023-01-13T07:18:56.207Z,3.68
2023-01-13T07:21:25.361Z,3.60
2023-01-13T07:23:56.083Z,3.61
2023-01-13T07:26:24.309Z,3.62
2023-01-13T07:28:54.138Z,3.65
2023-01-13T07:31:25.312Z,3.69
2023-01-13T07:33:59.947Z,3.72
2023-01-13T07:36:29.881Z,3.78
2023-01-13T07:39:07.237Z,3.85
2023-01-13T07:41:58.673Z,3.85
2023-01-13T07:44:31.983Z,3.81
2023-01-13T07:47:02.178Z,3.84
2023-01-13T07:49:34.095Z,3.88
2023-01-13T07:52:02.080Z,3.92
2023-01-13T07:54:40.048Z,3.86
2023-01-13T07:57:15.614Z,3.87
2023-01-13T07:59:44.203Z,3.91
2023-01-13T08:02:14.720Z,3.90
2023-01-13T08:04:44.941Z,3.87
2023-01-13T08:07:13.796Z,3.90
2023-01-13T08:09:43.719Z,3.87
2023-01-13T08:12:32.146Z,3.82
2023-01-13T08:15:16.316Z,3.90
2023-01-13T08:18:02.523Z,3.95
2023-01-13T08:20:35.531Z,4.01
2023-01-13T08:23:07.332Z,4.10
2023-01-13T08:25:35.751Z,4.16
2023-01-13T08:28:02.813Z,4.25
2023-01-13T08:30:30.261Z,4.12
2023-01-13T08:32:57.271Z,4.09
2023-01-13T08:35:24.248Z,4.06
2023-01-13T08:37:51.069Z,3.91
2023-01-13T08:40:29.354Z,4.01
2023-01-13T08:43:00.103Z,4.11
2023-01-13T08:45:26.977Z,4.11
2023-01-13T08:47:53.814Z,4.10
2023-01-13T08:50:20.896Z,3.97
2023-01-13T08:52:47.690Z,3.89
2023-01-13T08:55:14.455Z,3.83
2023-01-13T08:57:41.203Z,3.80
2023-01-13T09:00:08.826Z,3.69
2023-01-13T09:02:35.622Z,3.70
2023-01-13T09:05:03.972Z,3.74
2023-01-13T09:07:31.228Z,3.81
2023-01-13T09:09:58.333Z,3.94
2023-01-13T09:12:43.691Z,4.06
2023-01-13T09:15:11.052Z,4.25
2023-01-13T09:17:37.767Z,4.52
2023-01-13T09:20:06.266Z,4.78
2023-01-13T09:22:35.541Z,5.13
2023-01-13T09:25:02.301Z,5.49
2023-01-13T09:27:29.064Z,5.44
2023-01-13T09:29:56.115Z,5.48
2023-01-13T09:32:22.838Z,5.49
2023-01-13T09:35:01.679Z,5.45
2023-01-13T09:37:32.979Z,5.44
2023-01-13T09:40:09.705Z,5.46
2023-01-13T09:43:17.395Z,5.35
2023-01-13T09:45:57.995Z,5.47
2023-01-13T09:48:51.722Z,5.41
2023-01-13T09:51:28.600Z,5.46
2023-01-13T09:54:03.490Z,5.45
2023-01-13T09:56:30.220Z,5.39
2023-01-13T09:58:57.637Z,5.36
2023-01-13T10:01:30.296Z,5.41
2023-01-13T10:03:57.854Z,5.56
2023-01-13T10:06:33.374Z,5.60
2023-01-13T10:09:01.420Z,5.71
2023-01-13T10:11:51.466Z,5.89
2023-01-13T10:14:34.557Z,6.01
2023-01-13T10:17:19.902Z,6.00
2023-01-13T10:19:46.647Z,6.13
2023-01-13T10:22:44.416Z,6.13
2023-01-13T10:25:29.692Z,6.09
2023-01-13T10:28:01.673Z,6.12
2023-01-13T10:30:34.232Z,6.19
2023-01-13T10:33:11.937Z,6.19
2023-01-13T10:35:58.024Z,6.17
2023-01-13T10:38:27.424Z,6.01
2023-01-13T10:41:01.312Z,5.85
2023-01-13T10:43:29.702Z,5.75
2023-01-13T10:46:00.829Z,5.65
2023-01-13T10:48:37.802Z,5.62
2023-01-13T10:51:10.603Z,5.54
2023-01-13T10:54:05.280Z,5.36
2023-01-13T10:56:33.754Z,5.36
2023-01-13T10:59:13.272Z,5.35
2023-01-13T11:01:54.811Z,5.38
2023-01-13T11:04:33.522Z,5.44
2023-01-13T11:07:01.316Z,5.36
2023-01-13T11:09:28.854Z,5.21
2023-01-13T11:11:56.575Z,5.19
2023-01-13T11:14:39.846Z,5.16
2023-01-13T11:17:29.200Z,5.02
2023-01-13T11:20:20.600Z,5.02
2023-01-13T11:22:51.307Z,4.91
2023-01-13T11:25:32.725Z,4.88
2023-01-13T11:28:14.351Z,4.88
2023-01-13T11:30:48.467Z,4.74
2023-01-13T11:33:26.825Z,4.78
2023-01-13T11:36:06.995Z,4.89
2023-01-13T11:38:40.043Z,4.92
2023-01-13T11:41:28.686Z,4.91
2023-01-13T11:44:00.527Z,4.84
2023-01-13T11:46:28.176Z,4.81
2023-01-13T11:48:56.432Z,4.62
2023-01-13T11:51:51.213Z,4.55
2023-01-13T11:54:24.373Z,4.53
2023-01-13T11:57:03.170Z,4.47
2023-01-13T11:59:48.272Z,4.39
2023-01-13T12:02:52.447Z,4.36
2023-01-13T12:05:34.122Z,4.25
2023-01-13T12:08:19.393Z,4.16
2023-01-13T12:11:11.831Z,4.16
2023-01-13T12:13:50.370Z,4.19
2023-01-13T12:16:31.437Z,4.15
2023-01-13T12:19:24.504Z,4.18
2023-01-13T12:22:01.981Z,4.18
2023-01-13T12:24:33.097Z,4.24
2023-01-13T12:27:12.127Z,4.27
2023-01-13T12:29:39.535Z,4.26
2023-01-13T12:32:11.669Z,4.29
2023-01-13T12:34:59.705Z,4.46
2023-01-13T12:37:35.065Z,4.46
2023-01-13T12:40:20.259Z,4.55
2023-01-13T12:43:07.693Z,4.65
2023-01-13T12:45:34.989Z,4.83
2023-01-13T12:48:01.815Z,4.96
2023-01-13T12:50:29.171Z,4.96
2023-01-13T12:53:00.277Z,5.08
2023-01-13T12:55:36.132Z,4.94
2023-01-13T12:58:05.847Z,4.92
2023-01-13T13:01:06.923Z,4.97
2023-01-13T13:03:35.374Z,4.98
2023-01-13T13:06:20.927Z,4.97
2023-01-13T13:09:06.441Z,4.97
2023-01-13T13:11:59.437Z,5.06
2023-01-13T13:14:41.402Z,4.95
2023-01-13T13:17:28.454Z,4.88
2023-01-13T13:20:00.208Z,4.91
2023-01-13T13:22:26.938Z,4.64
2023-01-13T13:24:57.595Z,4.49
2023-01-13T13:27:49.638Z,4.49
2023-01-13T13:30:41.272Z,4.38
2023-01-13T13:33:31.989Z,4.33
2023-01-13T13:36:17.401Z,4.22
2023-01-13T13:39:24.089Z,4.16
2023-01-13T13:42:12.681Z,4.07
2023-01-13T13:44:59.475Z,4.06
2023-01-13T13:47:26.273Z,4.06
2023-01-13T13:49:56.838Z,4.05
2023-01-13T13:52:43.045Z,4.00
2023-01-13T13:55:18.522Z,3.97
2023-01-13T13:57:50.481Z,4.02
2023-01-13T14:00:28.185Z,4.07
2023-01-13T14:02:58.577Z,4.09
2023-01-13T14:05:30.241Z,4.16
2023-01-13T14:07:59.994Z,4.18
2023-01-13T14:10:35.802Z,4.13
2023-01-13T14:13:13.948Z,4.16
2023-01-13T14:15:41.332Z,4.18
2023-01-13T14:18:14.500Z,4.14
2023-01-13T14:20:42.425Z,4.13
2023-01-13T14:23:17.098Z,4.14
2023-01-13T14:25:49.253Z,4.16
2023-01-13T14:28:26.965Z,4.13
2023-01-13T14:30:54.963Z,4.15
2023-01-13T14:33:34.915Z,4.11
2023-01-13T14:36:18.577Z,4.05
2023-01-13T14:38:47.941Z,4.07
2023-01-13T14:41:26.409Z,4.05
2023-01-13T14:43:57.183Z,4.02
2023-01-13T14:46:25.596Z,4.01
2023-01-13T14:48:59.841Z,4.00
2023-01-13T14:51:28.509Z,4.04
2023-01-13T14:53:55.524Z,4.06
2023-01-13T14:56:41.097Z,4.06
2023-01-13T14:59:45.411Z,4.07
2023-01-13T15:02:30.440Z,4.09
2023-01-13T15:05:24.115Z,4.11
2023-01-13T15:07:56.874Z,4.15
2023-01-13T15:10:26.398Z,4.15
2023-01-13T15:12:55.078Z,4.15
2023-01-13T15:15:35.613Z,4.21
2023-01-13T15:18:15.638Z,4.24
2023-01-13T15:20:42.613Z,4.23
2023-01-13T15:23:09.752Z,4.30
2023-01-13T15:25:42.822Z,4.31
2023-01-13T15:28:24.204Z,4.35
2023-01-13T15:30:52.093Z,4.35
2023-01-13T15:33:19.703Z,4.31
2023-01-13T15:35:50.756Z,4.35
2023-01-13T15:38:20.514Z,4.42
2023-01-13T15:40:48.565Z,4.47
2023-01-13T15:43:36.513Z,4.54
2023-01-13T15:46:24.366Z,4.62
2023-01-13T15:48:54.746Z,4.70
2023-01-13T15:51:21.876Z,4.69
2023-01-13T15:53:48.745Z,4.72
2023-01-13T15:56:26.534Z,4.76
2023-01-13T15:58:53.743Z,4.78
2023-01-13T16:01:21.832Z,4.80
2023-01-13T16:03:48.693Z,4.82
2023-01-13T16:06:21.079Z,4.83
2023-01-13T16:08:48.656Z,4.76
2023-01-13T16:11:16.307Z,4.76
2023-01-13T16:13:43.143Z,4.75
2023-01-13T16:16:20.936Z,4.78
2023-01-13T16:18:48.380Z,4.83
2023-01-13T16:21:16.442Z,4.82
2023-01-13T16:23:44.099Z,4.84
2023-01-13T16:26:19.775Z,4.78
2023-01-13T16:28:51.296Z,4.86
2023-01-13T16:31:32.241Z,4.88
2023-01-13T16:34:00.579Z,4.97
2023-01-13T16:36:28.382Z,5.04
2023-01-13T16:38:56.875Z,4.95
2023-01-13T16:41:24.992Z,4.95
2023-01-13T16:43:52.270Z,4.98
2023-01-13T16:46:27.482Z,5.04
2023-01-13T16:48:56.469Z,5.09
2023-01-13T16:51:24.355Z,5.15
2023-01-13T16:53:51.588Z,5.12
2023-01-13T16:56:27.131Z,5.12
2023-01-13T16:59:00.061Z,5.14
2023-01-13T17:01:29.378Z,5.18
2023-01-13T17:03:56.934Z,5.16
2023-01-13T17:06:37.177Z,5.20
2023-01-13T17:09:11.472Z,5.19
2023-01-13T17:11:38.215Z,5.18
2023-01-13T17:14:18.091Z,5.21
2023-01-13T17:16:45.795Z,5.25
2023-01-13T17:19:13.006Z,5.26
2023-01-13T17:21:39.790Z,5.28
2023-01-13T17:24:07.947Z,5.27
2023-01-13T17:26:37.271Z,5.29
2023-01-13T17:29:05.777Z,5.24
2023-01-13T17:31:32.889Z,5.25
2023-01-13T17:34:01.086Z,5.27
2023-01-13T17:36:28.208Z,5.36
2023-01-13T17:38:55.476Z,5.43
2023-01-13T17:41:23.406Z,5.45
2023-01-13T17:43:50.466Z,5.47
2023-01-13T17:46:18.547Z,5.48
2023-01-13T17:48:46.184Z,5.49
2023-01-13T17:51:14.771Z,5.53
2023-01-13T17:53:44.198Z,5.56
2023-01-13T17:56:12.832Z,5.53
2023-01-13T17:58:41.505Z,5.57
2023-01-13T18:01:19.380Z,5.57
2023-01-13T18:03:46.420Z,5.53
2023-01-13T18:06:17.543Z,5.49
2023-01-13T18:08:44.705Z,5.50
2023-01-13T18:11:11.670Z,5.54
2023-01-13T18:13:43.172Z,5.56
2023-01-13T18:16:11.539Z,5.59
2023-01-13T18:18:39.437Z,5.65
2023-01-13T18:21:25.310Z,5.61
2023-01-13T18:24:11.487Z,5.62
2023-01-13T18:26:56.672Z,5.65
2023-01-13T18:29:23.689Z,5.65
2023-01-13T18:31:52.424Z,5.68
2023-01-13T18:34:20.902Z,5.74
2023-01-13T18:36:47.926Z,5.75
2023-01-13T18:39:14.745Z,5.78
2023-01-13T18:42:00.380Z,5.78
2023-01-13T18:44:27.131Z,5.77
2023-01-13T18:46:53.888Z,5.73
2023-01-13T18:49:20.636Z,5.68
2023-01-13T18:51:47.356Z,5.70
2023-01-13T18:54:14.169Z,5.70
2023-01-13T18:56:41.126Z,5.73
2023-01-13T18:59:07.920Z,5.76
2023-01-13T19:01:37.002Z,5.77
2023-01-13T19:04:05.612Z,5.73
2023-01-13T19:06:33.783Z,5.59
2023-01-13T19:09:08.279Z,5.54
2023-01-13T19:11:38.728Z,5.56
2023-01-13T19:14:05.488Z,5.56
2023-01-13T19:16:32.257Z,5.57
2023-01-13T19:18:59.955Z,5.62
2023-01-13T19:21:26.688Z,5.62
2023-01-13T19:23:54.721Z,5.62
2023-01-13T19:26:21.693Z,5.59
2023-01-13T19:28:48.697Z,5.55
2023-01-13T19:31:20.316Z,5.55
2023-01-13T19:33:47.366Z,5.52
2023-01-13T19:36:14.116Z,5.50
2023-01-13T19:38:41.090Z,5.46
2023-01-13T19:41:28.091Z,5.47
2023-01-13T19:44:14.793Z,5.51
2023-01-13T19:46:41.803Z,5.56
2023-01-13T19:49:10.435Z,5.52
2023-01-13T19:51:37.251Z,5.55
2023-01-13T19:54:04.157Z,5.55
2023-01-13T19:56:30.935Z,5.51
2023-01-13T19:58:57.692Z,5.47
2023-01-13T20:01:31.703Z,5.50
2023-01-13T20:04:03.294Z,5.51
2023-01-13T20:06:31.752Z,5.49
2023-01-13T20:08:59.387Z,5.50
2023-01-13T20:11:31.469Z,5.53
2023-01-13T20:13:59.313Z,5.56
2023-01-13T20:16:27.051Z,5.51
2023-01-13T20:18:54.347Z,5.48
2023-01-13T20:21:21.497Z,5.51
2023-01-13T20:23:52.044Z,5.54
2023-01-13T20:26:19.981Z,5.50
2023-01-13T20:28:47.491Z,5.48
2023-01-13T20:31:14.940Z,5.48
2023-01-13T20:33:42.427Z,5.53
2023-01-13T20:36:20.537Z,5.51
2023-01-13T20:38:48.734Z,5.55
2023-01-13T20:41:33.945Z,5.50
2023-01-13T20:44:00.862Z,5.59
2023-01-13T20:46:28.045Z,5.66
2023-01-13T20:48:54.962Z,5.53
2023-01-13T20:51:21.757Z,5.57
2023-01-13T20:53:48.520Z,5.59
2023-01-13T20:56:15.508Z,5.61
2023-01-13T20:58:43.912Z,5.60
2023-01-13T21:01:10.769Z,5.59
2023-01-13T21:03:37.602Z,5.57
2023-01-13T21:06:04.698Z,5.55
2023-01-13T21:08:31.521Z,5.52
2023-01-13T21:11:04.504Z,5.44
2023-01-13T21:13:51.020Z,5.46
2023-01-13T21:16:17.781Z,5.47
2023-01-13T21:19:03.128Z,5.49
2023-01-13T21:21:29.999Z,5.51
2023-01-13T21:23:56.746Z,5.55
2023-01-13T21:26:23.569Z,5.56
2023-01-13T21:28:50.554Z,5.53
2023-01-13T21:31:18.172Z,5.49
2023-01-13T21:33:47.582Z,5.43
2023-01-13T21:36:15.101Z,5.43
2023-01-13T21:38:42.204Z,5.42
2023-01-13T21:41:09.824Z,5.44
2023-01-13T21:43:56.049Z,5.42
2023-01-13T21:46:42.457Z,5.43
2023-01-13T21:49:09.634Z,5.42
2023-01-13T21:51:36.630Z,5.44
2023-01-13T21:54:03.466Z,5.42
2023-01-13T21:56:30.271Z,5.47
2023-01-13T21:58:56.970Z,5.46
2023-01-13T22:01:23.988Z,5.45
2023-01-13T22:04:09.280Z,5.51
2023-01-13T22:06:36.073Z,5.55
2023-01-13T22:09:02.847Z,5.52
2023-01-13T22:11:29.804Z,5.58
2023-01-13T22:14:05.503Z,5.63
2023-01-13T22:16:39.273Z,5.68
2023-01-13T22:19:07.131Z,5.71
2023-01-13T22:21:34.439Z,5.72
2023-01-13T22:24:01.775Z,5.71
2023-01-13T22:26:28.819Z,5.65
2023-01-13T22:28:55.534Z,5.65
2023-01-13T22:31:23.791Z,5.64
2023-01-13T22:33:54.919Z,5.58
2023-01-13T22:36:23.906Z,5.58
2023-01-13T22:38:58.437Z,5.61
2023-01-13T22:41:25.409Z,5.63
2023-01-13T22:43:52.137Z,5.62
2023-01-13T22:46:18.991Z,5.62
2023-01-13T22:48:48.203Z,5.62
2023-01-13T22:51:16.872Z,5.61
2023-01-13T22:53:43.767Z,5.62
2023-01-13T22:56:19.543Z,5.57
2023-01-13T22:58:46.306Z,5.49
2023-01-13T23:01:15.899Z,5.48
2023-01-13T23:03:46.274Z,5.44
2023-01-13T23:06:13.285Z,5.45
2023-01-13T23:08:40.131Z,5.50
2023-01-13T23:11:08.645Z,5.48
2023-01-13T23:13:37.863Z,5.42
2023-01-13T23:16:06.654Z,5.42
2023-01-13T23:18:34.056Z,5.40
2023-01-13T23:21:07.773Z,5.35
2023-01-13T23:23:34.856Z,5.28
2023-01-13T23:26:01.941Z,5.27
2023-01-13T23:28:28.914Z,5.24
2023-01-13T23:30:55.751Z,5.25
2023-01-13T23:33:22.565Z,5.26
2023-01-13T23:36:03.739Z,5.27
2023-01-13T23:38:31.197Z,5.27
2023-01-13T23:40:58.351Z,5.25
2023-01-13T23:43:28.248Z,5.29
2023-01-13T23:46:02.766Z,5.34
2023-01-13T23:48:29.641Z,5.32
2023-01-13T23:51:00.918Z,5.29
2023-01-13T23:53:39.934Z,5.32
2023-01-13T23:56:10.234Z,5.38
2023-01-13T23:58:36.945Z,5.43
